createdAt,value
2018-03-22T00:00:02.861Z,15.45
2018-03-22T00:02:30.400Z,13.30
2018-03-22T00:04:57.878Z,12.57
2018-03-22T00:07:25.377Z,12.88
2018-03-22T00:09:53.636Z,11.05
2018-03-22T00:12:21.132Z,12.60
2018-03-22T00:14:49.355Z,20.92
2018-03-22T00:17:16.860Z,14.10
2018-03-22T00:19:45.147Z,14.68
2018-03-22T00:25:14.665Z,10.82
2018-03-22T00:27:42.951Z,12.20
2018-03-22T00:30:10.447Z,11.12
2018-03-22T00:32:37.969Z,8.32
2018-03-22T00:35:05.455Z,11.88
2018-03-22T00:37:32.949Z,9.75
2018-03-22T00:40:00.415Z,11.20
2018-03-22T00:42:28.700Z,10.35
2018-03-22T00:44:56.932Z,12.50
2018-03-22T00:47:24.454Z,12.07
2018-03-22T00:49:52.718Z,10.50
2018-03-22T00:52:20.942Z,9.68
2018-03-22T00:54:48.452Z,10.18
2018-03-22T00:57:16.685Z,12.95
2018-03-22T00:59:44.206Z,11.07
2018-03-22T01:02:11.705Z,8.20
2018-03-22T01:04:39.206Z,10.32
2018-03-22T01:07:07.459Z,9.40
2018-03-22T01:09:34.984Z,11.75
2018-03-22T01:12:02.456Z,11.20
2018-03-22T01:14:29.959Z,12.02
2018-03-22T01:16:58.208Z,11.30
2018-03-22T01:19:25.722Z,12.30
2018-03-22T01:21:53.215Z,10.88
2018-03-22T01:24:20.714Z,10.57
2018-03-22T01:26:48.958Z,10.05
2018-03-22T01:29:16.465Z,8.13
2018-03-22T01:31:43.976Z,9.82
2018-03-22T01:34:11.442Z,9.63
2018-03-22T01:36:38.938Z,6.75
2018-03-22T01:39:06.422Z,8.23
2018-03-22T01:41:33.939Z,11.48
2018-03-22T01:44:02.178Z,11.43
2018-03-22T01:46:29.679Z,10.70
2018-03-22T01:48:57.922Z,8.93
2018-03-22T01:51:25.419Z,11.27
2018-03-22T01:53:52.897Z,10.48
2018-03-22T01:56:20.418Z,11.82
2018-03-22T01:58:48.657Z,11.12
2018-03-22T02:01:16.128Z,11.07
2018-03-22T02:03:43.620Z,11.05
2018-03-22T02:06:11.869Z,13.60
2018-03-22T02:08:39.405Z,13.30
2018-03-22T02:11:06.877Z,11.35
2018-03-22T02:13:34.387Z,8.13
2018-03-22T02:16:01.868Z,21.98
2018-03-22T02:18:29.383Z,12.15
2018-03-22T02:20:56.870Z,12.35
2018-03-22T02:23:24.348Z,15.10
2018-03-22T02:25:51.847Z,11.63
2018-03-22T02:28:19.330Z,10.88
2018-03-22T02:30:47.600Z,16.37
2018-03-22T02:33:15.840Z,9.77
2018-03-22T02:35:43.353Z,13.95
2018-03-22T02:38:10.831Z,10.02
2018-03-22T02:40:38.348Z,10.95
2018-03-22T02:43:06.621Z,11.88
2018-03-22T02:45:34.091Z,9.52
2018-03-22T02:48:02.354Z,13.00
2018-03-22T02:50:29.842Z,13.60
2018-03-22T02:52:58.103Z,10.95
2018-03-22T02:55:26.396Z,14.73
2018-03-22T02:57:53.853Z,12.82
2018-03-22T03:00:21.321Z,12.73
2018-03-22T03:02:48.820Z,9.95
2018-03-22T03:05:16.325Z,18.12
2018-03-22T03:07:44.583Z,14.23
2018-03-22T03:10:12.860Z,12.63
2018-03-22T03:12:40.361Z,12.00
2018-03-22T03:15:07.867Z,11.30
2018-03-22T03:17:35.347Z,10.70
2018-03-22T03:20:03.623Z,11.20
2018-03-22T03:22:31.882Z,9.98
2018-03-22T03:24:59.359Z,9.45
2018-03-22T03:27:27.643Z,11.05
2018-03-22T03:29:55.117Z,13.75
2018-03-22T03:32:22.637Z,10.48
2018-03-22T03:34:50.104Z,7.95
2018-03-22T03:37:18.395Z,19.65
2018-03-22T03:39:46.657Z,9.70
2018-03-22T03:42:14.932Z,10.23
2018-03-22T03:44:42.412Z,13.57
2018-03-22T03:47:10.674Z,10.98
2018-03-22T03:49:38.952Z,9.00
2018-03-22T03:52:07.215Z,11.10
2018-03-22T03:54:34.685Z,13.20
2018-03-22T03:57:02.953Z,7.95
2018-03-22T03:59:31.223Z,12.00
2018-03-22T04:01:58.702Z,9.70
2018-03-22T04:04:26.988Z,9.25
2018-03-22T04:06:54.475Z,15.13
2018-03-22T04:09:21.962Z,13.65
2018-03-22T04:11:49.456Z,9.60
2018-03-22T04:14:17.725Z,12.25
2018-03-22T04:16:45.227Z,12.68
2018-03-22T04:19:12.740Z,13.77
2018-03-22T04:21:40.214Z,11.50
2018-03-22T04:24:08.482Z,11.25
2018-03-22T04:26:36.710Z,10.80
2018-03-22T04:29:04.227Z,12.43
2018-03-22T04:31:32.469Z,12.13
2018-03-22T04:34:01.476Z,11.45
2018-03-22T04:36:28.983Z,11.25
2018-03-22T04:38:56.452Z,12.93
2018-03-22T04:41:23.959Z,11.10
2018-03-22T04:43:52.205Z,14.10
2018-03-22T04:46:19.707Z,14.45
2018-03-22T04:48:47.955Z,14.20
2018-03-22T04:51:15.451Z,14.68
2018-03-22T04:53:43.705Z,11.82
2018-03-22T04:56:11.190Z,11.90
2018-03-22T04:58:38.707Z,14.77
2018-03-22T05:01:06.228Z,10.00
2018-03-22T05:03:33.728Z,11.30
2018-03-22T05:06:01.207Z,10.20
2018-03-22T05:08:29.489Z,10.05
2018-03-22T05:10:57.758Z,11.05
2018-03-22T05:13:26.014Z,14.73
2018-03-22T05:15:53.507Z,9.73
2018-03-22T05:18:21.802Z,10.43
2018-03-22T05:20:49.295Z,8.68
2018-03-22T05:23:16.792Z,9.68
2018-03-22T05:25:45.015Z,9.73
2018-03-22T05:28:12.524Z,11.77
2018-03-22T05:30:40.867Z,14.87
2018-03-22T05:33:08.398Z,13.65
2018-03-22T05:35:35.907Z,8.45
2018-03-22T05:38:03.379Z,10.23
2018-03-22T05:40:31.648Z,13.73
2018-03-22T05:42:59.139Z,10.50
2018-03-22T05:45:26.630Z,12.80
2018-03-22T05:47:54.098Z,13.30
2018-03-22T05:50:21.612Z,12.02
2018-03-22T05:52:49.086Z,8.40
2018-03-22T05:55:16.578Z,14.23
2018-03-22T05:57:44.067Z,13.80
2018-03-22T06:00:12.337Z,10.63
2018-03-22T06:02:39.840Z,15.00
2018-03-22T06:05:07.338Z,13.62
2018-03-22T06:07:36.322Z,11.63
2018-03-22T06:10:03.826Z,12.77
2018-03-22T06:12:31.308Z,13.52
2018-03-22T06:14:58.812Z,12.50
2018-03-22T06:17:26.316Z,10.57
2018-03-22T06:19:54.680Z,12.35
2018-03-22T06:22:22.226Z,11.43
2018-03-22T06:24:50.503Z,10.82
2018-03-22T06:27:18.736Z,12.40
2018-03-22T06:29:46.243Z,13.15
2018-03-22T06:32:14.527Z,13.18
2018-03-22T06:34:42.837Z,9.70
2018-03-22T06:37:10.347Z,10.05
2018-03-22T06:39:37.861Z,7.05
2018-03-22T06:42:05.350Z,10.73
2018-03-22T06:44:34.361Z,12.30
2018-03-22T06:47:02.634Z,9.85
2018-03-22T06:49:30.152Z,9.23
2018-03-22T06:51:58.376Z,12.52
2018-03-22T06:54:25.828Z,14.95
2018-03-22T06:56:53.433Z,15.23
2018-03-22T06:59:20.914Z,21.90
2018-03-22T07:01:48.362Z,19.55
2018-03-22T07:04:15.914Z,25.00
2018-03-22T07:06:43.428Z,13.68
2018-03-22T07:09:10.936Z,14.70
2018-03-22T07:11:38.427Z,18.50
2018-03-22T07:14:05.936Z,16.55
2018-03-22T07:16:33.407Z,14.27
2018-03-22T07:19:00.936Z,16.25
2018-03-22T07:21:29.201Z,12.98
2018-03-22T07:23:56.714Z,16.10
2018-03-22T07:26:24.230Z,12.48
2018-03-22T07:28:52.496Z,14.93
2018-03-22T07:31:19.960Z,12.00
2018-03-22T07:33:48.230Z,17.15
2018-03-22T07:36:15.695Z,14.32
2018-03-22T07:38:43.977Z,9.88
2018-03-22T07:41:12.245Z,15.63
2018-03-22T07:43:42.472Z,12.37
2018-03-22T07:46:10.003Z,11.63
2018-03-22T07:48:37.526Z,18.70
2018-03-22T07:51:04.998Z,11.00
2018-03-22T07:53:32.469Z,14.02
2018-03-22T07:55:59.963Z,16.67
2018-03-22T07:58:28.216Z,10.75
2018-03-22T08:00:55.719Z,21.58
2018-03-22T08:03:23.240Z,12.18
2018-03-22T08:05:50.778Z,12.50
2018-03-22T08:08:19.040Z,13.68
2018-03-22T08:10:46.534Z,10.48
2018-03-22T08:13:14.051Z,10.20
2018-03-22T08:15:41.589Z,12.65
2018-03-22T08:18:09.846Z,12.48
2018-03-22T08:20:38.160Z,12.05
2018-03-22T08:23:05.637Z,19.20
2018-03-22T08:25:33.119Z,19.33
2018-03-22T08:28:00.646Z,12.57
2018-03-22T08:30:28.175Z,12.40
2018-03-22T08:32:56.555Z,24.23
2018-03-22T08:35:24.842Z,15.35
2018-03-22T08:37:52.352Z,11.52
2018-03-22T08:40:19.837Z,17.90
2018-03-22T08:42:48.135Z,28.30
2018-03-22T08:45:16.385Z,33.90
2018-03-22T08:47:44.723Z,14.43
2018-03-22T08:50:12.198Z,12.77
2018-03-22T08:52:39.656Z,15.02
2018-03-22T08:55:07.185Z,14.77
2018-03-22T08:57:34.700Z,14.35
2018-03-22T09:00:02.236Z,18.27
2018-03-22T09:02:29.867Z,14.07
2018-03-22T09:04:57.347Z,10.25
2018-03-22T09:07:24.862Z,9.95
2018-03-22T09:09:52.405Z,10.55
2018-03-22T09:12:20.626Z,4.12
2018-03-22T09:14:48.168Z,6.22
2018-03-22T09:17:15.651Z,6.75
2018-03-22T09:19:43.120Z,6.70
2018-03-22T09:22:10.607Z,5.82
2018-03-22T09:24:38.073Z,5.20
2018-03-22T09:27:06.412Z,8.07
2018-03-22T09:29:33.880Z,10.45
2018-03-22T09:32:01.376Z,7.70
2018-03-22T09:34:29.684Z,10.93
2018-03-22T09:36:57.896Z,6.60
2018-03-22T09:39:25.367Z,5.95
2018-03-22T09:41:53.673Z,9.98
2018-03-22T09:44:21.104Z,3.95
2018-03-22T09:46:48.590Z,6.65
2018-03-22T09:49:16.831Z,5.40
2018-03-22T09:51:44.372Z,4.68
2018-03-22T09:54:11.850Z,6.05
2018-03-22T09:56:39.359Z,4.53
2018-03-22T09:59:06.864Z,10.73
2018-03-22T10:01:34.354Z,5.05
2018-03-22T10:04:02.615Z,4.05
2018-03-22T10:06:30.111Z,15.60
2018-03-22T10:08:57.602Z,4.55
2018-03-22T10:11:25.068Z,8.43
2018-03-22T10:13:52.739Z,7.37
2018-03-22T10:16:20.270Z,3.80
2018-03-22T10:18:48.476Z,5.05
2018-03-22T10:21:15.970Z,6.03
2018-03-22T10:23:43.453Z,14.10
2018-03-22T10:26:10.976Z,4.90
2018-03-22T10:28:39.303Z,6.45
2018-03-22T10:31:06.790Z,4.60
2018-03-22T10:33:34.260Z,5.40
2018-03-22T10:36:02.517Z,4.57
2018-03-22T10:38:30.033Z,4.87
2018-03-22T10:40:57.516Z,6.00
2018-03-22T10:43:24.995Z,6.45
2018-03-22T10:45:52.492Z,4.53
2018-03-22T10:48:20.796Z,7.53
2018-03-22T10:50:48.278Z,6.87
2018-03-22T10:53:15.770Z,13.65
2018-03-22T10:55:44.044Z,9.75
2018-03-22T10:58:11.506Z,8.57
2018-03-22T11:00:39.834Z,8.05
2018-03-22T11:03:13.116Z,6.45
2018-03-22T11:05:40.590Z,13.68
2018-03-22T11:08:08.120Z,13.07
2018-03-22T11:10:35.623Z,8.02
2018-03-22T11:13:03.110Z,8.98
2018-03-22T11:15:30.606Z,9.05
2018-03-22T11:17:58.078Z,6.60
2018-03-22T11:20:25.559Z,9.07
2018-03-22T11:22:53.081Z,9.05
2018-03-22T11:25:20.609Z,11.77
2018-03-22T11:27:48.057Z,9.25
2018-03-22T11:30:15.576Z,14.75
2018-03-22T11:32:43.087Z,12.30
2018-03-22T11:35:11.310Z,14.90
2018-03-22T11:37:38.816Z,11.52
2018-03-22T11:40:06.303Z,10.10
2018-03-22T11:42:33.782Z,12.73
2018-03-22T11:45:01.271Z,19.50
2018-03-22T11:47:28.774Z,15.40
2018-03-22T11:49:56.273Z,12.90
2018-03-22T11:52:23.773Z,11.88
2018-03-22T11:54:52.047Z,10.98
2018-03-22T11:57:20.330Z,15.52
2018-03-22T11:59:47.816Z,11.02
2018-03-22T12:02:15.334Z,14.80
2018-03-22T12:04:42.865Z,12.37
2018-03-22T12:07:10.314Z,15.23
2018-03-22T12:09:37.803Z,11.60
2018-03-22T12:12:05.356Z,10.32
2018-03-22T12:14:32.869Z,11.77
2018-03-22T12:17:00.427Z,11.05
2018-03-22T12:19:27.896Z,13.48
2018-03-22T12:21:55.416Z,11.20
2018-03-22T12:24:22.911Z,31.62
2018-03-22T12:26:50.402Z,12.68
2018-03-22T12:29:17.898Z,16.45
2018-03-22T12:31:46.151Z,10.23
2018-03-22T12:34:13.653Z,11.98
2018-03-22T12:36:41.150Z,9.40
2018-03-22T12:39:08.636Z,12.57
2018-03-22T12:41:36.137Z,6.32
2018-03-22T12:44:03.634Z,8.55
2018-03-22T12:46:31.186Z,8.07
2018-03-22T12:48:58.662Z,8.75
2018-03-22T12:51:26.181Z,10.10
2018-03-22T12:53:53.991Z,8.73
2018-03-22T12:56:21.470Z,10.30
2018-03-22T12:58:50.552Z,15.50
2018-03-22T13:01:18.058Z,8.65
2018-03-22T13:03:45.568Z,15.15
2018-03-22T13:06:13.089Z,9.38
2018-03-22T13:08:40.587Z,10.70
2018-03-22T13:11:08.050Z,12.10
2018-03-22T13:13:36.323Z,10.07
2018-03-22T13:16:03.816Z,16.75
2018-03-22T13:18:31.329Z,11.18
2018-03-22T13:20:58.850Z,20.85
2018-03-22T13:23:26.384Z,14.20
2018-03-22T13:25:54.688Z,23.30
2018-03-22T13:28:22.171Z,11.77
2018-03-22T13:30:49.688Z,14.68
2018-03-22T13:33:17.175Z,13.27
2018-03-22T13:35:44.667Z,12.32
2018-03-22T13:38:12.159Z,15.55
2018-03-22T13:40:39.659Z,12.82
2018-03-22T13:43:07.196Z,20.60
2018-03-22T13:45:34.656Z,14.68
2018-03-22T13:48:02.154Z,16.55
2018-03-22T13:50:29.637Z,13.75
2018-03-22T13:52:57.907Z,12.60
2018-03-22T13:55:26.183Z,17.17
2018-03-22T13:57:53.680Z,13.38
2018-03-22T14:00:21.210Z,14.57
2018-03-22T14:02:48.656Z,14.73
2018-03-22T14:05:16.915Z,15.32
2018-03-22T14:07:44.435Z,13.07
2018-03-22T14:10:11.937Z,18.23
2018-03-22T14:12:39.539Z,14.27
2018-03-22T14:15:06.971Z,18.58
2018-03-22T14:17:34.497Z,20.52
2018-03-22T14:20:02.033Z,17.77
2018-03-22T14:22:29.514Z,19.08
2018-03-22T14:24:57.031Z,17.40
2018-03-22T14:27:24.514Z,21.37
2018-03-22T14:29:52.026Z,17.62
2018-03-22T14:32:19.516Z,21.48
2018-03-22T14:34:47.002Z,16.25
2018-03-22T14:37:14.502Z,16.35
2018-03-22T14:39:41.962Z,19.30
2018-03-22T14:42:10.272Z,18.87
2018-03-22T14:44:37.698Z,21.05
2018-03-22T14:47:05.993Z,19.77
2018-03-22T14:49:34.248Z,22.65
2018-03-22T14:52:01.727Z,20.98
2018-03-22T14:54:30.035Z,19.23
2018-03-22T14:56:57.526Z,20.52
2018-03-22T14:59:25.023Z,19.23
2018-03-22T15:01:52.529Z,21.60
2018-03-22T15:04:20.015Z,18.92
2018-03-22T15:06:47.532Z,21.92
2018-03-22T15:09:15.019Z,28.08
2018-03-22T15:11:42.478Z,21.58
2018-03-22T15:14:10.000Z,23.23
2018-03-22T15:16:37.503Z,29.98
2018-03-22T15:19:05.060Z,26.75
2018-03-22T15:21:32.535Z,33.72
2018-03-22T15:24:00.816Z,24.42
2018-03-22T15:26:29.059Z,29.45
2018-03-22T15:28:56.566Z,29.30
2018-03-22T15:31:24.892Z,24.50
2018-03-22T15:33:52.450Z,28.95
2018-03-22T15:36:19.949Z,22.33
2018-03-22T15:38:48.258Z,24.02
2018-03-22T15:41:15.815Z,29.50
2018-03-22T15:43:43.301Z,23.02
2018-03-22T15:46:10.946Z,26.23
2018-03-22T15:48:38.430Z,15.48
2018-03-22T15:51:05.919Z,24.33
2018-03-22T15:53:33.444Z,35.00
2018-03-22T15:56:00.931Z,21.45
2018-03-22T15:58:28.459Z,25.90
2018-03-22T16:00:55.970Z,19.37
2018-03-22T16:03:24.235Z,29.05
2018-03-22T16:05:52.501Z,22.33
2018-03-22T16:08:19.994Z,26.25
2018-03-22T16:10:48.267Z,17.90
2018-03-22T16:13:16.577Z,20.67
2018-03-22T16:15:44.077Z,33.03
2018-03-22T16:18:11.584Z,17.90
2018-03-22T16:20:39.795Z,24.70
2018-03-22T16:23:07.278Z,24.30
2018-03-22T16:25:34.778Z,26.10
2018-03-22T16:28:02.304Z,26.52
2018-03-22T16:30:30.872Z,34.35
2018-03-22T16:32:58.357Z,25.70
2018-03-22T16:35:25.834Z,33.00
2018-03-22T16:37:53.353Z,35.33
2018-03-22T16:40:21.624Z,32.42
2018-03-22T16:42:49.123Z,29.10
2018-03-22T16:45:16.638Z,27.87
2018-03-22T16:47:44.102Z,23.15
2018-03-22T16:50:11.598Z,26.87
2018-03-22T16:52:39.107Z,27.40
2018-03-22T16:55:06.599Z,29.23
2018-03-22T16:57:34.842Z,23.48
2018-03-22T17:00:02.426Z,33.70
2018-03-22T17:02:29.850Z,30.60
2018-03-22T17:04:57.388Z,31.00
2018-03-22T17:07:24.859Z,28.50
2018-03-22T17:09:52.379Z,25.75
2018-03-22T17:12:20.635Z,27.70
2018-03-22T17:14:48.173Z,30.02
2018-03-22T17:17:15.671Z,27.65
2018-03-22T17:19:43.273Z,39.50
2018-03-22T17:22:10.786Z,33.90
2018-03-22T17:24:39.071Z,38.20
2018-03-22T17:27:07.337Z,35.08
2018-03-22T17:29:35.579Z,30.90
2018-03-22T17:32:03.075Z,29.95
2018-03-22T17:34:30.570Z,29.42
2018-03-22T17:36:58.095Z,28.90
2018-03-22T17:39:25.574Z,25.65
2018-03-22T17:41:53.108Z,25.20
2018-03-22T17:44:21.399Z,30.58
2018-03-22T17:46:48.944Z,39.35
2018-03-22T17:49:17.214Z,29.15
2018-03-22T17:51:44.737Z,31.08
2018-03-22T17:54:12.893Z,26.65
2018-03-22T17:56:40.426Z,30.52
2018-03-22T17:59:08.687Z,29.58
2018-03-22T18:01:36.953Z,30.12
2018-03-22T18:04:05.252Z,40.95
2018-03-22T18:06:33.536Z,31.83
2018-03-22T18:09:01.038Z,33.17
2018-03-22T18:11:28.546Z,30.17
2018-03-22T18:13:56.807Z,39.50
2018-03-22T18:16:24.298Z,81.82
2018-03-22T18:18:51.808Z,44.78
2018-03-22T18:21:19.283Z,34.60
2018-03-22T18:23:47.610Z,37.25
2018-03-22T18:26:15.093Z,46.60
2018-03-22T18:28:42.569Z,41.70
2018-03-22T18:31:10.081Z,30.50
2018-03-22T18:33:37.597Z,37.10
2018-03-22T18:36:05.132Z,36.78
2018-03-22T18:38:32.620Z,34.58
2018-03-22T18:41:00.131Z,32.17
2018-03-22T18:43:27.603Z,34.53
2018-03-22T18:45:55.117Z,34.75
2018-03-22T18:48:23.352Z,32.13
2018-03-22T18:50:50.855Z,38.65
2018-03-22T18:53:18.368Z,36.13
2018-03-22T18:55:45.860Z,38.08
2018-03-22T18:58:14.341Z,36.17
2018-03-22T19:00:42.418Z,32.95
2018-03-22T19:03:10.724Z,39.40
2018-03-22T19:05:38.266Z,37.35
2018-03-22T19:08:05.821Z,35.90
2018-03-22T19:10:34.074Z,35.40
2018-03-22T19:13:02.309Z,34.28
2018-03-22T19:15:29.806Z,37.35
2018-03-22T19:17:57.308Z,33.85
2018-03-22T19:20:24.803Z,33.35
2018-03-22T19:22:52.279Z,36.00
2018-03-22T19:25:19.786Z,39.45
2018-03-22T19:27:47.272Z,35.28
2018-03-22T19:30:14.779Z,45.70
2018-03-22T19:32:43.007Z,34.83
2018-03-22T19:35:10.547Z,36.55
2018-03-22T19:37:38.032Z,33.20
2018-03-22T19:40:05.532Z,34.70
2018-03-22T19:42:33.774Z,33.13
2018-03-22T19:45:01.276Z,35.75
2018-03-22T19:47:28.766Z,42.13
2018-03-22T19:49:56.275Z,31.67
2018-03-22T19:52:23.804Z,33.35
2018-03-22T19:54:51.949Z,32.22
2018-03-22T19:57:19.428Z,35.00
2018-03-22T19:59:46.967Z,30.52
2018-03-22T20:02:14.501Z,34.45
2018-03-22T20:04:42.011Z,28.38
2018-03-22T20:07:09.513Z,30.95
2018-03-22T20:09:37.019Z,28.75
2018-03-22T20:12:04.515Z,30.33
2018-03-22T20:14:31.974Z,30.70
2018-03-22T20:17:00.250Z,28.35
2018-03-22T20:19:28.511Z,34.67
2018-03-22T20:21:56.015Z,35.03
2018-03-22T20:24:23.536Z,28.50
2018-03-22T20:26:51.015Z,29.45
2018-03-22T20:29:19.305Z,32.10
2018-03-22T20:31:47.567Z,26.83
2018-03-22T20:34:15.856Z,31.05
2018-03-22T20:36:43.336Z,28.00
2018-03-22T20:39:10.874Z,33.03
2018-03-22T20:41:39.829Z,31.83
2018-03-22T20:44:07.306Z,33.13
2018-03-22T20:46:35.566Z,32.10
2018-03-22T20:49:03.103Z,29.17
2018-03-22T20:51:30.566Z,30.30
2018-03-22T20:53:58.086Z,34.05
2018-03-22T20:56:25.586Z,30.70
2018-03-22T20:58:53.132Z,27.35
2018-03-22T21:01:20.581Z,27.10
2018-03-22T21:03:48.060Z,26.95
2018-03-22T21:06:15.599Z,30.70
2018-03-22T21:08:43.103Z,31.87
2018-03-22T21:11:10.620Z,29.75
2018-03-22T21:13:38.087Z,27.77
2018-03-22T21:16:05.591Z,23.77
2018-03-22T21:18:33.855Z,29.05
2018-03-22T21:21:01.347Z,28.73
2018-03-22T21:23:28.855Z,30.33
2018-03-22T21:25:56.391Z,31.08
2018-03-22T21:28:23.886Z,37.15
2018-03-22T21:30:51.395Z,30.02
2018-03-22T21:33:18.859Z,30.05
2018-03-22T21:35:46.370Z,28.67
2018-03-22T21:38:13.855Z,29.08
2018-03-22T21:40:42.082Z,28.95
2018-03-22T21:43:09.592Z,25.90
2018-03-22T21:45:37.086Z,29.95
2018-03-22T21:48:04.556Z,30.05
2018-03-22T21:50:43.983Z,26.90
2018-03-22T21:53:11.483Z,32.25
2018-03-22T21:55:38.965Z,30.23
2018-03-22T21:58:06.458Z,25.98
2018-03-22T22:00:33.959Z,35.97
2018-03-22T22:03:02.201Z,30.90
2018-03-22T22:05:29.707Z,29.52
2018-03-22T22:07:57.944Z,30.95
2018-03-22T22:10:25.466Z,39.45
2018-03-22T22:12:52.989Z,27.50
2018-03-22T22:15:20.482Z,30.83
2018-03-22T22:17:47.984Z,29.77
2018-03-22T22:20:15.490Z,32.00
2018-03-22T22:22:42.976Z,30.92
2018-03-22T22:25:10.493Z,33.72
2018-03-22T22:27:37.939Z,35.35
2018-03-22T22:30:05.424Z,38.67
2018-03-22T22:32:32.917Z,41.22
2018-03-22T22:35:00.385Z,33.78
2018-03-22T22:37:27.887Z,35.22
2018-03-22T22:39:56.117Z,43.22
2018-03-22T22:42:23.627Z,33.80
2018-03-22T22:44:51.885Z,43.53
2018-03-22T22:47:20.146Z,41.85
2018-03-22T22:49:47.645Z,44.60
2018-03-22T22:52:15.120Z,41.35
2018-03-22T22:54:42.626Z,45.25
2018-03-22T22:57:10.097Z,43.42
2018-03-22T22:59:37.616Z,37.63
2018-03-22T23:02:05.091Z,52.10
2018-03-22T23:04:32.575Z,44.92
2018-03-22T23:07:00.818Z,52.10
2018-03-22T23:09:28.328Z,49.10
2018-03-22T23:11:55.827Z,52.20
2018-03-22T23:14:23.318Z,49.35
2018-03-22T23:16:50.824Z,55.17
2018-03-22T23:19:18.319Z,52.42
2018-03-22T23:21:45.806Z,51.88
2018-03-22T23:24:14.076Z,49.83
2018-03-22T23:26:41.551Z,49.90
2018-03-22T23:29:09.811Z,49.42
2018-03-22T23:31:37.309Z,45.50
2018-03-22T23:34:04.803Z,54.17
2018-03-22T23:36:32.290Z,46.63
2018-03-22T23:38:59.781Z,55.05
2018-03-22T23:41:27.295Z,45.45
2018-03-22T23:43:54.796Z,46.10
2018-03-22T23:46:22.282Z,56.55
2018-03-22T23:48:49.774Z,55.38
2018-03-22T23:51:17.269Z,48.97
2018-03-22T23:53:44.854Z,41.05
2018-03-22T23:56:12.318Z,51.20
2018-03-22T23:58:39.817Z,49.03
